createdAt,value
2022-08-21T00:01:19.177Z,27.98
2022-08-21T00:03:57.445Z,27.98
2022-08-21T00:06:28.953Z,28.01
2022-08-21T00:09:06.319Z,28.02
2022-08-21T00:11:44.085Z,28.04
2022-08-21T00:14:20.611Z,28.08
2022-08-21T00:16:51.728Z,28.09
2022-08-21T00:19:25.923Z,28.07
2022-08-21T00:21:57.388Z,28.07
2022-08-21T00:24:31.270Z,28.09
2022-08-21T00:27:05.893Z,28.08
2022-08-21T00:29:36.957Z,28.06
2022-08-21T00:32:09.893Z,28.06
2022-08-21T00:34:43.924Z,28.07
2022-08-21T00:37:27.332Z,28.07
2022-08-21T00:39:58.456Z,28.09
2022-08-21T00:42:31.308Z,28.11
2022-08-21T00:45:06.814Z,28.07
2022-08-21T00:47:37.628Z,28.03
2022-08-21T00:50:11.951Z,28.01
2022-08-21T00:52:52.641Z,27.99
2022-08-21T00:55:28.400Z,28.01
2022-08-21T00:58:02.774Z,28.03
2022-08-21T01:00:38.982Z,28.01
2022-08-21T01:03:10.943Z,27.93
2022-08-21T01:06:06.505Z,27.90
2022-08-21T01:08:37.445Z,27.89
2022-08-21T01:11:29.102Z,27.92
2022-08-21T01:14:08.468Z,27.91
2022-08-21T01:16:41.173Z,27.87
2022-08-21T01:19:19.264Z,27.76
2022-08-21T01:21:50.318Z,27.66
2022-08-21T01:24:21.208Z,27.61
2022-08-21T01:26:52.209Z,27.57
2022-08-21T01:29:29.637Z,27.58
2022-08-21T01:32:08.628Z,27.57
2022-08-21T01:34:44.581Z,27.57
2022-08-21T01:37:30.092Z,27.58
2022-08-21T01:40:01.987Z,27.55
2022-08-21T01:42:32.853Z,27.48
2022-08-21T01:45:05.496Z,27.36
2022-08-21T01:47:47.269Z,27.37
2022-08-21T01:50:21.476Z,27.35
2022-08-21T01:52:57.052Z,27.25
2022-08-21T01:55:31.292Z,27.10
2022-08-21T01:58:04.432Z,27.02
2022-08-21T02:00:41.736Z,26.97
2022-08-21T02:03:26.394Z,26.93
2022-08-21T02:06:09.499Z,26.88
2022-08-21T02:08:46.120Z,26.81
2022-08-21T02:11:22.097Z,26.76
2022-08-21T02:13:53.979Z,26.70
2022-08-21T02:16:31.332Z,26.69
2022-08-21T02:19:05.583Z,26.70
2022-08-21T02:21:41.141Z,26.71
2022-08-21T02:24:13.887Z,26.73
2022-08-21T02:26:51.311Z,26.76
2022-08-21T02:29:24.940Z,26.75
2022-08-21T02:31:57.028Z,26.73
2022-08-21T02:34:30.997Z,26.64
2022-08-21T02:37:03.685Z,26.56
2022-08-21T02:39:36.336Z,26.49
2022-08-21T02:42:14.128Z,26.48
2022-08-21T02:44:51.616Z,26.43
2022-08-21T02:47:23.730Z,26.41
2022-08-21T02:49:54.583Z,26.43
2022-08-21T02:52:25.901Z,26.45
2022-08-21T02:55:00.773Z,26.45
2022-08-21T02:57:37.916Z,26.47
2022-08-21T03:00:17.615Z,26.47
2022-08-21T03:03:02.150Z,26.46
2022-08-21T03:05:33.786Z,26.44
2022-08-21T03:08:08.132Z,26.40
2022-08-21T03:10:43.396Z,26.39
2022-08-21T03:13:15.692Z,26.40
2022-08-21T03:15:50.515Z,26.42
2022-08-21T03:18:22.933Z,26.41
2022-08-21T03:21:03.264Z,26.39
2022-08-21T03:23:36.162Z,26.35
2022-08-21T03:26:09.245Z,26.30
2022-08-21T03:28:41.412Z,26.24
2022-08-21T03:31:15.535Z,26.22
2022-08-21T03:33:51.981Z,26.22
2022-08-21T03:36:22.809Z,26.22
2022-08-21T03:38:54.917Z,26.21
2022-08-21T03:41:28.104Z,26.22
2022-08-21T03:44:01.378Z,26.23
2022-08-21T03:46:33.127Z,26.26
2022-08-21T03:49:13.221Z,26.26
2022-08-21T03:51:59.781Z,26.26
2022-08-21T03:54:32.519Z,26.26
2022-08-21T03:57:17.112Z,26.26
2022-08-21T03:59:48.570Z,26.25
2022-08-21T04:02:20.744Z,26.17
2022-08-21T04:04:53.858Z,26.14
2022-08-21T04:07:25.057Z,26.07
2022-08-21T04:09:56.392Z,26.05
2022-08-21T04:12:28.953Z,26.01
2022-08-21T04:15:05.572Z,25.98
2022-08-21T04:17:41.267Z,25.92
2022-08-21T04:23:02.674Z,25.84
2022-08-21T04:25:36.524Z,25.85
2022-08-21T04:28:13.435Z,25.86
2022-08-21T04:30:44.603Z,25.86
2022-08-21T04:33:17.448Z,25.84
2022-08-21T04:36:08.797Z,25.81
2022-08-21T04:38:44.629Z,25.84
2022-08-21T04:41:25.055Z,25.86
2022-08-21T04:44:07.008Z,25.88
2022-08-21T04:46:41.753Z,25.90
2022-08-21T04:49:17.832Z,25.95
2022-08-21T04:51:49.704Z,25.98
2022-08-21T04:54:27.160Z,26.02
2022-08-21T04:57:04.737Z,26.08
2022-08-21T04:59:41.622Z,26.13
2022-08-21T05:02:15.263Z,26.18
2022-08-21T05:04:51.545Z,26.23
2022-08-21T05:07:42.235Z,26.23
2022-08-21T05:10:16.124Z,26.21
2022-08-21T05:12:47.233Z,26.21
2022-08-21T05:15:22.790Z,26.24
2022-08-21T05:18:00.689Z,26.23
2022-08-21T05:20:38.353Z,26.22
2022-08-21T05:23:14.933Z,26.21
2022-08-21T05:25:46.056Z,26.24
2022-08-21T05:28:28.918Z,26.29
2022-08-21T05:31:02.861Z,26.33
2022-08-21T05:33:44.111Z,26.37
2022-08-21T05:36:17.030Z,26.35
2022-08-21T05:38:51.157Z,26.38
2022-08-21T05:41:27.737Z,26.40
2022-08-21T05:44:01.342Z,26.39
2022-08-21T05:46:34.729Z,26.43
2022-08-21T05:49:09.968Z,26.47
2022-08-21T05:51:46.201Z,26.46
2022-08-21T05:54:21.991Z,26.48
2022-08-21T05:56:55.043Z,26.51
2022-08-21T05:59:29.183Z,26.56
2022-08-21T06:02:06.094Z,26.60
2022-08-21T06:04:42.273Z,26.64
2022-08-21T06:07:23.063Z,26.74
2022-08-21T06:10:01.249Z,26.87
2022-08-21T06:12:34.445Z,26.95
2022-08-21T06:15:08.892Z,27.07
2022-08-21T06:17:39.767Z,27.16
2022-08-21T06:20:13.690Z,27.22
2022-08-21T06:22:48.739Z,27.30
2022-08-21T06:25:22.597Z,27.41
2022-08-21T06:27:53.277Z,27.55
2022-08-21T06:30:27.156Z,27.65
2022-08-21T06:33:03.944Z,27.72
2022-08-21T06:35:40.453Z,27.75
2022-08-21T06:38:12.575Z,27.82
2022-08-21T06:40:44.010Z,27.92
2022-08-21T06:43:23.129Z,28.04
2022-08-21T06:46:10.708Z,28.24
2022-08-21T06:48:48.393Z,28.43
2022-08-21T06:51:22.077Z,28.58
2022-08-21T06:53:56.908Z,28.74
2022-08-21T06:56:34.477Z,28.89
2022-08-21T06:59:06.764Z,29.04
2022-08-21T07:01:50.618Z,29.20
2022-08-21T07:04:22.845Z,29.42
2022-08-21T07:06:59.693Z,29.56
2022-08-21T07:09:30.640Z,29.73
2022-08-21T07:12:04.749Z,29.87
2022-08-21T07:14:44.292Z,30.05
2022-08-21T07:17:18.320Z,30.20
2022-08-21T07:19:52.591Z,30.34
2022-08-21T07:22:30.065Z,30.49
2022-08-21T07:25:05.968Z,30.66
2022-08-21T07:27:42.433Z,30.81
2022-08-21T07:30:26.579Z,30.93
2022-08-21T07:33:01.727Z,30.98
2022-08-21T07:35:36.229Z,31.04
2022-08-21T07:38:12.817Z,31.12
2022-08-21T07:40:47.648Z,31.26
2022-08-21T07:43:22.949Z,31.40
2022-08-21T07:45:55.970Z,31.50
2022-08-21T07:48:31.093Z,31.54
2022-08-21T07:51:05.388Z,31.51
2022-08-21T07:53:49.410Z,31.43
2022-08-21T07:56:23.748Z,31.38
2022-08-21T07:58:58.642Z,31.31
2022-08-21T08:01:30.729Z,31.30
2022-08-21T08:04:05.096Z,31.28
2022-08-21T08:06:35.840Z,31.25
2022-08-21T08:09:09.963Z,31.22
2022-08-21T08:11:44.736Z,31.18
2022-08-21T08:14:16.700Z,31.15
2022-08-21T08:16:49.118Z,31.11
2022-08-21T08:19:22.769Z,31.17
2022-08-21T08:21:58.047Z,31.21
2022-08-21T08:24:29.302Z,31.28
2022-08-21T08:27:02.357Z,31.32
2022-08-21T08:29:34.823Z,31.36
2022-08-21T08:32:07.542Z,31.41
2022-08-21T08:34:44.389Z,31.49
2022-08-21T08:37:16.489Z,31.60
2022-08-21T08:39:52.312Z,31.78
2022-08-21T08:42:32.628Z,31.99
2022-08-21T08:45:06.705Z,32.12
2022-08-21T08:47:39.116Z,32.24
2022-08-21T08:50:15.442Z,32.43
2022-08-21T08:52:50.188Z,32.70
2022-08-21T08:55:27.145Z,32.92
2022-08-21T08:58:01.881Z,33.15
2022-08-21T09:00:36.903Z,33.37
2022-08-21T09:03:13.871Z,33.61
2022-08-21T09:05:45.459Z,33.81
2022-08-21T09:08:23.227Z,34.00
2022-08-21T09:11:00.715Z,34.21
2022-08-21T09:13:36.589Z,34.44
2022-08-21T09:16:11.187Z,34.76
2022-08-21T09:18:46.732Z,35.06
2022-08-21T09:21:28.220Z,35.22
2022-08-21T09:24:00.505Z,35.23
2022-08-21T09:26:33.591Z,35.36
2022-08-21T09:29:06.573Z,35.67
2022-08-21T09:31:39.730Z,36.03
2022-08-21T09:34:12.390Z,36.22
2022-08-21T09:36:47.741Z,36.32
2022-08-21T09:46:28.837Z,37.07
2022-08-21T09:49:03.601Z,37.16
2022-08-21T09:51:39.687Z,37.23
2022-08-21T09:54:16.907Z,37.05
2022-08-21T09:57:15.011Z,36.72
2022-08-21T09:59:46.686Z,36.14
2022-08-21T10:02:25.443Z,36.05
2022-08-21T10:04:57.498Z,36.29
2022-08-21T10:07:28.902Z,36.00
2022-08-21T10:10:03.486Z,35.60
2022-08-21T10:12:36.000Z,35.20
2022-08-21T10:15:12.875Z,35.06
2022-08-21T10:17:47.332Z,35.24
2022-08-21T10:20:23.530Z,35.53
2022-08-21T10:23:02.340Z,35.40
2022-08-21T10:25:38.305Z,35.13
2022-08-21T10:28:13.575Z,35.01
2022-08-21T10:30:53.682Z,34.94
2022-08-21T10:33:33.907Z,34.87
2022-08-21T10:36:07.688Z,34.86
2022-08-21T10:39:17.852Z,34.74
2022-08-21T10:42:04.806Z,34.57
2022-08-21T10:44:40.259Z,34.46
2022-08-21T10:47:16.277Z,34.85
2022-08-21T10:49:50.205Z,35.21
2022-08-21T10:52:54.675Z,35.53
2022-08-21T10:55:30.784Z,35.95
2022-08-21T10:58:05.244Z,36.12
2022-08-21T11:00:41.697Z,36.21
2022-08-21T11:03:15.009Z,36.46
2022-08-21T11:05:51.585Z,36.69
2022-08-21T11:08:29.154Z,36.80
2022-08-21T11:11:04.473Z,36.98
2022-08-21T11:13:42.439Z,37.29
2022-08-21T11:16:18.421Z,37.34
2022-08-21T11:19:02.004Z,37.28
2022-08-21T11:21:39.445Z,37.42
2022-08-21T11:24:32.137Z,37.46
2022-08-21T11:27:04.723Z,37.51
2022-08-21T11:29:36.038Z,37.25
2022-08-21T11:32:22.925Z,36.99
2022-08-21T11:34:59.404Z,36.69
2022-08-21T11:37:33.594Z,36.34
2022-08-21T11:40:06.707Z,36.17
2022-08-21T11:42:43.403Z,36.01
2022-08-21T11:45:21.931Z,35.84
2022-08-21T11:47:58.479Z,35.70
2022-08-21T11:50:36.059Z,35.59
2022-08-21T11:53:14.486Z,35.54
2022-08-21T11:55:46.696Z,35.39
2022-08-21T11:58:23.093Z,35.17
2022-08-21T12:00:57.616Z,35.11
2022-08-21T12:03:33.248Z,35.07
2022-08-21T12:06:11.624Z,34.94
2022-08-21T12:08:47.977Z,34.81
2022-08-21T12:11:30.899Z,34.77
2022-08-21T12:14:20.551Z,34.67
2022-08-21T12:16:55.596Z,34.61
2022-08-21T12:19:33.331Z,34.58
2022-08-21T12:22:15.018Z,34.61
2022-08-21T12:24:46.987Z,34.62
2022-08-21T12:27:32.976Z,34.64
2022-08-21T12:30:05.651Z,34.65
2022-08-21T12:32:49.214Z,34.51
2022-08-21T12:35:28.789Z,34.42
2022-08-21T12:38:01.640Z,34.35
2022-08-21T12:40:41.463Z,34.35
2022-08-21T12:43:20.613Z,34.25
2022-08-21T12:45:55.660Z,34.13
2022-08-21T12:48:32.101Z,34.06
2022-08-21T12:51:11.638Z,33.96
2022-08-21T12:53:47.175Z,33.90
2022-08-21T12:56:27.039Z,33.81
2022-08-21T12:59:00.662Z,33.68
2022-08-21T13:01:41.736Z,33.57
2022-08-21T13:04:15.903Z,33.52
2022-08-21T13:06:49.438Z,33.50
2022-08-21T13:09:29.103Z,33.44
2022-08-21T13:12:03.449Z,33.47
2022-08-21T13:14:38.343Z,33.49
2022-08-21T13:17:25.676Z,33.54
2022-08-21T13:20:00.785Z,33.55
2022-08-21T13:22:42.262Z,33.51
2022-08-21T13:25:13.924Z,33.53
2022-08-21T13:27:50.666Z,33.49
2022-08-21T13:30:23.414Z,33.45
2022-08-21T13:32:55.013Z,33.47
2022-08-21T13:35:27.870Z,33.46
2022-08-21T13:38:01.225Z,33.45
2022-08-21T13:40:41.070Z,33.40
2022-08-21T13:43:19.907Z,33.38
2022-08-21T13:45:55.081Z,33.39
2022-08-21T13:48:28.789Z,33.42
2022-08-21T13:51:04.359Z,33.44
2022-08-21T13:53:39.867Z,33.49
2022-08-21T13:56:15.727Z,33.54
2022-08-21T13:58:49.252Z,33.52
2022-08-21T14:01:26.132Z,33.19
2022-08-21T14:04:08.654Z,32.77
2022-08-21T14:06:40.516Z,32.39
2022-08-21T14:09:14.151Z,32.13
2022-08-21T14:11:44.837Z,31.86
2022-08-21T14:14:18.639Z,31.56
2022-08-21T14:16:55.123Z,31.32
2022-08-21T14:19:26.592Z,31.12
2022-08-21T14:22:02.429Z,30.92
2022-08-21T14:24:40.563Z,30.85
2022-08-21T14:27:12.332Z,30.79
2022-08-21T14:29:46.904Z,30.66
2022-08-21T14:32:25.359Z,30.53
2022-08-21T14:35:01.923Z,30.33
2022-08-21T14:37:37.770Z,30.12
2022-08-21T14:40:23.829Z,29.94
2022-08-21T14:42:59.869Z,29.73
2022-08-21T14:45:33.676Z,29.57
2022-08-21T14:48:08.548Z,29.42
2022-08-21T14:50:44.633Z,29.27
2022-08-21T14:53:15.538Z,28.91
2022-08-21T14:56:09.547Z,28.57
2022-08-21T14:58:43.813Z,28.23
2022-08-21T15:01:18.318Z,27.84
2022-08-21T15:03:50.212Z,27.51
2022-08-21T15:06:30.484Z,27.25
2022-08-21T15:09:03.743Z,27.12
2022-08-21T15:11:42.727Z,27.06
2022-08-21T15:14:15.720Z,27.00
2022-08-21T15:16:47.743Z,27.01
2022-08-21T15:19:23.466Z,26.96
2022-08-21T15:21:57.577Z,26.88
2022-08-21T15:24:28.352Z,26.88
2022-08-21T15:27:17.698Z,26.94
2022-08-21T15:29:49.820Z,27.06
2022-08-21T15:32:24.920Z,27.14
2022-08-21T15:35:00.316Z,27.12
2022-08-21T15:37:35.998Z,27.04
2022-08-21T15:40:10.670Z,27.00
2022-08-21T15:42:48.481Z,27.01
2022-08-21T15:45:19.154Z,27.00
2022-08-21T15:47:49.909Z,26.97
2022-08-21T15:50:24.150Z,26.98
2022-08-21T15:52:55.026Z,26.96
2022-08-21T15:55:27.017Z,26.90
2022-08-21T15:57:59.925Z,26.81
2022-08-21T16:00:32.707Z,26.70
2022-08-21T16:03:03.592Z,26.67
2022-08-21T16:05:34.339Z,26.72
2022-08-21T16:08:05.186Z,26.80
2022-08-21T16:10:38.697Z,26.88
2022-08-21T16:13:10.516Z,26.94
2022-08-21T16:15:41.411Z,26.98
2022-08-21T16:18:12.183Z,27.01
2022-08-21T16:20:42.991Z,27.04
2022-08-21T16:23:13.711Z,27.11
2022-08-21T16:25:44.468Z,27.17
2022-08-21T16:28:16.825Z,27.21
2022-08-21T16:30:48.434Z,27.24
2022-08-21T16:33:21.342Z,27.27
2022-08-21T16:35:52.108Z,27.30
2022-08-21T16:38:22.861Z,27.32
2022-08-21T16:40:53.573Z,27.35
2022-08-21T16:43:24.396Z,27.40
2022-08-21T16:45:59.519Z,27.44
2022-08-21T16:48:30.680Z,27.48
2022-08-21T16:51:01.645Z,27.51
2022-08-21T16:53:34.677Z,27.55
2022-08-21T16:56:07.486Z,27.60
2022-08-21T16:58:42.195Z,27.63
2022-08-21T17:01:16.425Z,27.65
2022-08-21T17:03:48.890Z,27.70
2022-08-21T17:06:19.629Z,27.71
2022-08-21T17:08:52.592Z,27.73
2022-08-21T17:11:36.528Z,27.75
2022-08-21T17:14:11.184Z,27.76
2022-08-21T17:16:43.561Z,27.77
2022-08-21T17:19:16.708Z,27.77
2022-08-21T17:21:48.844Z,27.80
2022-08-21T17:24:19.691Z,27.82
2022-08-21T17:26:50.370Z,27.83
2022-08-21T17:29:21.096Z,27.85
2022-08-21T17:31:51.857Z,27.86
2022-08-21T17:34:22.516Z,27.87
2022-08-21T17:36:53.368Z,27.84
2022-08-21T17:39:26.654Z,27.81
2022-08-21T17:41:58.264Z,27.77
2022-08-21T17:44:29.317Z,27.74
2022-08-21T17:47:00.022Z,27.75
2022-08-21T17:49:30.751Z,27.77
2022-08-21T17:52:01.512Z,27.79
2022-08-21T17:54:32.317Z,27.78
2022-08-21T17:57:04.270Z,27.80
2022-08-21T17:59:38.413Z,27.81
2022-08-21T18:02:17.472Z,27.65
2022-08-21T18:04:51.352Z,27.54
2022-08-21T18:07:32.398Z,27.54
2022-08-21T18:10:05.635Z,27.53
2022-08-21T18:12:36.524Z,27.54
2022-08-21T18:15:08.403Z,27.56
2022-08-21T18:17:41.080Z,27.62
2022-08-21T18:20:13.858Z,27.64
2022-08-21T18:22:49.630Z,27.59
2022-08-21T18:25:24.799Z,27.57
2022-08-21T18:27:55.715Z,27.59
2022-08-21T18:30:26.544Z,27.58
2022-08-21T18:32:57.380Z,27.59
2022-08-21T18:35:29.514Z,27.62
2022-08-21T18:38:05.445Z,27.62
2022-08-21T18:40:36.470Z,27.62
2022-08-21T18:43:10.005Z,27.59
2022-08-21T18:45:49.111Z,27.58
2022-08-21T18:48:21.174Z,27.57
2022-08-21T18:50:57.574Z,27.55
2022-08-21T18:53:32.190Z,27.49
2022-08-21T18:56:04.945Z,27.45
2022-08-21T18:58:36.657Z,27.45
2022-08-21T19:01:07.589Z,27.38
2022-08-21T19:03:41.089Z,27.35
2022-08-21T19:06:12.093Z,27.28
2022-08-21T19:08:45.565Z,27.21
2022-08-21T19:11:23.501Z,27.10
2022-08-21T19:13:54.969Z,27.00
2022-08-21T19:16:26.037Z,26.93
2022-08-21T19:18:58.229Z,26.88
2022-08-21T19:21:31.908Z,26.82
2022-08-21T19:26:55.844Z,26.64
2022-08-21T19:29:35.220Z,26.61
2022-08-21T19:32:23.959Z,26.54
2022-08-21T19:37:48.822Z,26.34
2022-08-21T19:40:19.904Z,26.26
2022-08-21T19:42:53.135Z,26.18
2022-08-21T19:45:26.527Z,26.12
2022-08-21T19:47:59.881Z,26.08
2022-08-21T19:50:33.669Z,26.05
2022-08-21T19:53:12.083Z,26.06
2022-08-21T19:55:48.274Z,26.04
2022-08-21T19:58:24.111Z,26.02
2022-08-21T20:00:54.800Z,26.02
2022-08-21T20:03:30.336Z,26.01
2022-08-21T20:06:02.980Z,25.97
2022-08-21T20:08:34.948Z,25.89
2022-08-21T20:11:10.620Z,25.77
2022-08-21T20:13:43.363Z,25.69
2022-08-21T20:16:15.325Z,25.61
2022-08-21T20:18:49.422Z,25.59
2022-08-21T20:21:23.281Z,25.56
2022-08-21T20:23:54.084Z,25.58
2022-08-21T20:26:24.962Z,25.61
2022-08-21T20:28:56.343Z,25.64
2022-08-21T20:31:27.753Z,25.65
2022-08-21T20:34:00.749Z,25.65
2022-08-21T20:36:34.213Z,25.64
2022-08-21T20:39:09.112Z,25.65
2022-08-21T20:44:35.465Z,25.69
2022-08-21T20:47:09.151Z,25.68
2022-08-21T20:49:43.683Z,25.67
2022-08-21T20:52:15.564Z,25.70
2022-08-21T20:54:48.829Z,25.72
2022-08-21T20:57:22.070Z,25.72
2022-08-21T20:59:55.985Z,25.73
2022-08-21T21:02:33.564Z,25.73
2022-08-21T21:05:08.029Z,25.72
2022-08-21T21:07:40.122Z,25.71
2022-08-21T21:10:14.971Z,25.68
2022-08-21T21:12:53.301Z,25.64
2022-08-21T21:15:30.202Z,25.63
2022-08-21T21:18:04.256Z,25.67
2022-08-21T21:20:40.787Z,25.68
2022-08-21T21:23:25.608Z,25.70
2022-08-21T21:26:01.022Z,25.74
2022-08-21T21:28:39.267Z,25.75
2022-08-21T21:31:18.320Z,25.76
2022-08-21T21:33:49.407Z,25.77
2022-08-21T21:36:24.412Z,25.82
2022-08-21T21:39:01.124Z,25.79
2022-08-21T21:41:33.957Z,25.77
2022-08-21T21:44:09.418Z,25.74
2022-08-21T21:46:48.865Z,25.70
2022-08-21T21:49:26.456Z,25.67
2022-08-21T21:52:03.699Z,25.68
2022-08-21T21:54:42.652Z,25.69
2022-08-21T21:57:17.586Z,25.71
2022-08-21T21:59:59.272Z,25.64
2022-08-21T22:02:33.851Z,25.58
2022-08-21T22:05:08.062Z,25.60
2022-08-21T22:07:45.166Z,25.60
2022-08-21T22:10:30.144Z,25.52
2022-08-21T22:15:59.793Z,25.46
2022-08-21T22:18:34.819Z,25.41
2022-08-21T22:21:07.022Z,25.32
2022-08-21T22:23:42.123Z,25.22
2022-08-21T22:26:19.339Z,25.17
2022-08-21T22:28:53.366Z,25.19
2022-08-21T22:31:29.229Z,25.24
2022-08-21T22:34:04.073Z,25.18
2022-08-21T22:36:36.651Z,25.14
2022-08-21T22:39:10.824Z,25.10
2022-08-21T22:41:42.728Z,25.08
2022-08-21T22:44:21.876Z,25.00
2022-08-21T22:46:55.476Z,24.90
2022-08-21T22:49:33.241Z,24.91
2022-08-21T22:52:12.922Z,24.90
2022-08-21T22:54:45.198Z,24.87
2022-08-21T22:57:30.623Z,24.85
2022-08-21T23:00:11.592Z,24.86
2022-08-21T23:02:44.586Z,24.76
2022-08-21T23:05:26.340Z,24.70
2022-08-21T23:08:01.153Z,24.69
2022-08-21T23:10:32.682Z,24.71
2022-08-21T23:13:06.350Z,24.74
2022-08-21T23:15:44.809Z,24.73
2022-08-21T23:18:19.179Z,24.72
2022-08-21T23:20:58.407Z,24.81
2022-08-21T23:23:30.861Z,24.88
2022-08-21T23:26:17.638Z,24.88
2022-08-21T23:28:56.314Z,24.85
2022-08-21T23:31:28.393Z,24.87
2022-08-21T23:34:15.709Z,24.89
2022-08-21T23:37:15.181Z,24.93
2022-08-21T23:39:51.663Z,24.92
2022-08-21T23:42:28.061Z,24.95
2022-08-21T23:45:13.732Z,24.97
2022-08-21T23:47:58.793Z,25.03
2022-08-21T23:50:31.278Z,25.07
2022-08-21T23:56:00.244Z,24.98
2022-08-21T23:58:41.814Z,24.94
